sensor_id;sensor_type;location;lat;lon;timestamp;P1;durP1;ratioP1;P2;durP2;ratioP2
24435;SDS011;12616;52.470;13.436;2022-11-23T00:02:25;75.57;;;32.25;;
24435;SDS011;12616;52.470;13.436;2022-11-23T00:04:52;74.47;;;33.72;;
24435;SDS011;12616;52.470;13.436;2022-11-23T00:07:18;71.07;;;32.42;;
24435;SDS011;12616;52.470;13.436;2022-11-23T00:09:45;62.20;;;25.90;;
24435;SDS011;12616;52.470;13.436;2022-11-23T00:12:12;60.22;;;27.27;;
24435;SDS011;12616;52.470;13.436;2022-11-23T00:14:40;54.90;;;25.98;;
24435;SDS011;12616;52.470;13.436;2022-11-23T00:17:07;63.90;;;28.85;;
24435;SDS011;12616;52.470;13.436;2022-11-23T00:19:34;51.72;;;27.05;;
24435;SDS011;12616;52.470;13.436;2022-11-23T00:22:01;59.08;;;27.73;;
24435;SDS011;12616;52.470;13.436;2022-11-23T00:24:28;63.92;;;27.65;;
24435;SDS011;12616;52.470;13.436;2022-11-23T00:26:55;60.65;;;26.92;;
24435;SDS011;12616;52.470;13.436;2022-11-23T00:29:22;55.15;;;25.55;;
24435;SDS011;12616;52.470;13.436;2022-11-23T00:31:50;56.95;;;27.10;;
24435;SDS011;12616;52.470;13.436;2022-11-23T00:34:16;59.60;;;31.20;;
24435;SDS011;12616;52.470;13.436;2022-11-23T00:36:43;65.10;;;28.00;;
24435;SDS011;12616;52.470;13.436;2022-11-23T00:39:10;55.22;;;25.35;;
24435;SDS011;12616;52.470;13.436;2022-11-23T00:41:37;73.05;;;28.38;;
24435;SDS011;12616;52.470;13.436;2022-11-23T00:44:03;63.53;;;29.33;;
24435;SDS011;12616;52.470;13.436;2022-11-23T00:46:31;54.65;;;29.90;;
24435;SDS011;12616;52.470;13.436;2022-11-23T00:48:59;66.22;;;28.30;;
24435;SDS011;12616;52.470;13.436;2022-11-23T00:51:27;60.05;;;28.05;;
24435;SDS011;12616;52.470;13.436;2022-11-23T00:53:55;58.45;;;26.38;;
24435;SDS011;12616;52.470;13.436;2022-11-23T00:56:23;55.50;;;26.48;;
24435;SDS011;12616;52.470;13.436;2022-11-23T00:58:50;57.88;;;29.25;;
24435;SDS011;12616;52.470;13.436;2022-11-23T01:01:20;59.13;;;27.05;;
24435;SDS011;12616;52.470;13.436;2022-11-23T01:03:49;46.40;;;25.58;;
24435;SDS011;12616;52.470;13.436;2022-11-23T01:06:20;51.50;;;26.60;;
24435;SDS011;12616;52.470;13.436;2022-11-23T01:08:50;66.22;;;26.02;;
24435;SDS011;12616;52.470;13.436;2022-11-23T01:11:21;54.13;;;25.67;;
24435;SDS011;12616;52.470;13.436;2022-11-23T01:13:49;64.28;;;29.02;;
24435;SDS011;12616;52.470;13.436;2022-11-23T01:16:17;66.25;;;28.80;;
24435;SDS011;12616;52.470;13.436;2022-11-23T01:18:45;56.50;;;26.05;;
24435;SDS011;12616;52.470;13.436;2022-11-23T01:21:13;65.00;;;27.10;;
24435;SDS011;12616;52.470;13.436;2022-11-23T01:23:43;61.85;;;29.23;;
24435;SDS011;12616;52.470;13.436;2022-11-23T01:26:17;55.50;;;26.52;;
24435;SDS011;12616;52.470;13.436;2022-11-23T01:28:47;49.53;;;26.05;;
24435;SDS011;12616;52.470;13.436;2022-11-23T01:31:15;57.55;;;25.42;;
24435;SDS011;12616;52.470;13.436;2022-11-23T01:33:44;53.65;;;27.48;;
24435;SDS011;12616;52.470;13.436;2022-11-23T01:36:11;53.63;;;25.92;;
24435;SDS011;12616;52.470;13.436;2022-11-23T01:38:43;52.47;;;25.50;;
24435;SDS011;12616;52.470;13.436;2022-11-23T01:41:16;46.47;;;25.27;;
24435;SDS011;12616;52.470;13.436;2022-11-23T01:43:50;67.78;;;30.25;;
24435;SDS011;12616;52.470;13.436;2022-11-23T01:46:25;53.20;;;25.52;;
24435;SDS011;12616;52.470;13.436;2022-11-23T01:48:53;65.13;;;28.20;;
24435;SDS011;12616;52.470;13.436;2022-11-23T01:51:25;55.97;;;27.27;;
24435;SDS011;12616;52.470;13.436;2022-11-23T01:54:01;58.75;;;27.15;;
24435;SDS011;12616;52.470;13.436;2022-11-23T01:56:36;60.10;;;27.00;;
24435;SDS011;12616;52.470;13.436;2022-11-23T01:59:13;59.85;;;26.30;;
24435;SDS011;12616;52.470;13.436;2022-11-23T02:01:49;58.53;;;26.52;;
24435;SDS011;12616;52.470;13.436;2022-11-23T02:04:24;52.63;;;25.65;;
24435;SDS011;12616;52.470;13.436;2022-11-23T02:07:01;51.97;;;27.25;;
24435;SDS011;12616;52.470;13.436;2022-11-23T02:09:36;53.40;;;26.98;;
24435;SDS011;12616;52.470;13.436;2022-11-23T02:12:10;44.90;;;24.75;;
24435;SDS011;12616;52.470;13.436;2022-11-23T02:14:41;58.50;;;27.00;;
24435;SDS011;12616;52.470;13.436;2022-11-23T02:17:12;50.63;;;25.63;;
24435;SDS011;12616;52.470;13.436;2022-11-23T02:19:46;60.53;;;28.75;;
24435;SDS011;12616;52.470;13.436;2022-11-23T02:22:25;55.53;;;27.08;;
24435;SDS011;12616;52.470;13.436;2022-11-23T02:25:06;53.10;;;27.50;;
24435;SDS011;12616;52.470;13.436;2022-11-23T02:27:45;61.78;;;26.33;;
24435;SDS011;12616;52.470;13.436;2022-11-23T02:30:17;64.82;;;29.60;;
24435;SDS011;12616;52.470;13.436;2022-11-23T02:32:49;55.47;;;27.35;;
24435;SDS011;12616;52.470;13.436;2022-11-23T02:35:21;51.38;;;26.50;;
24435;SDS011;12616;52.470;13.436;2022-11-23T02:37:53;52.80;;;25.95;;
24435;SDS011;12616;52.470;13.436;2022-11-23T02:40:24;54.35;;;25.65;;
24435;SDS011;12616;52.470;13.436;2022-11-23T02:42:54;48.38;;;24.45;;
24435;SDS011;12616;52.470;13.436;2022-11-23T02:45:23;47.53;;;26.17;;
24435;SDS011;12616;52.470;13.436;2022-11-23T02:47:57;54.63;;;26.52;;
24435;SDS011;12616;52.470;13.436;2022-11-23T02:50:24;58.47;;;26.30;;
24435;SDS011;12616;52.470;13.436;2022-11-23T02:52:50;47.13;;;24.83;;
24435;SDS011;12616;52.470;13.436;2022-11-23T02:55:17;49.38;;;25.00;;
24435;SDS011;12616;52.470;13.436;2022-11-23T02:57:44;51.10;;;27.48;;
24435;SDS011;12616;52.470;13.436;2022-11-23T03:00:13;54.40;;;26.40;;
24435;SDS011;12616;52.470;13.436;2022-11-23T03:02:40;53.08;;;25.50;;
24435;SDS011;12616;52.470;13.436;2022-11-23T03:05:08;48.85;;;25.17;;
24435;SDS011;12616;52.470;13.436;2022-11-23T03:07:34;49.80;;;23.88;;
24435;SDS011;12616;52.470;13.436;2022-11-23T03:10:02;49.60;;;25.42;;
24435;SDS011;12616;52.470;13.436;2022-11-23T03:12:29;44.10;;;23.05;;
24435;SDS011;12616;52.470;13.436;2022-11-23T03:14:56;55.65;;;27.08;;
24435;SDS011;12616;52.470;13.436;2022-11-23T03:17:24;55.83;;;24.33;;
24435;SDS011;12616;52.470;13.436;2022-11-23T03:19:52;54.10;;;27.27;;
24435;SDS011;12616;52.470;13.436;2022-11-23T03:22:19;52.45;;;26.45;;
24435;SDS011;12616;52.470;13.436;2022-11-23T03:24:46;59.75;;;26.55;;
24435;SDS011;12616;52.470;13.436;2022-11-23T03:27:13;53.35;;;24.95;;
24435;SDS011;12616;52.470;13.436;2022-11-23T03:29:40;49.08;;;25.23;;
24435;SDS011;12616;52.470;13.436;2022-11-23T03:32:06;48.08;;;25.50;;
24435;SDS011;12616;52.470;13.436;2022-11-23T03:34:34;56.20;;;25.10;;
24435;SDS011;12616;52.470;13.436;2022-11-23T03:37:01;51.22;;;26.35;;
24435;SDS011;12616;52.470;13.436;2022-11-23T03:39:28;47.35;;;25.70;;
24435;SDS011;12616;52.470;13.436;2022-11-23T03:41:58;45.08;;;25.70;;
24435;SDS011;12616;52.470;13.436;2022-11-23T03:44:25;52.00;;;26.38;;
24435;SDS011;12616;52.470;13.436;2022-11-23T03:46:52;57.33;;;25.52;;
24435;SDS011;12616;52.470;13.436;2022-11-23T03:49:19;51.20;;;26.15;;
24435;SDS011;12616;52.470;13.436;2022-11-23T03:51:48;51.95;;;25.98;;
24435;SDS011;12616;52.470;13.436;2022-11-23T03:54:15;56.08;;;27.55;;
24435;SDS011;12616;52.470;13.436;2022-11-23T03:56:42;50.15;;;26.05;;
24435;SDS011;12616;52.470;13.436;2022-11-23T03:59:08;53.45;;;26.10;;
24435;SDS011;12616;52.470;13.436;2022-11-23T04:01:35;53.40;;;25.92;;
24435;SDS011;12616;52.470;13.436;2022-11-23T04:04:02;52.40;;;24.13;;
24435;SDS011;12616;52.470;13.436;2022-11-23T04:06:29;56.65;;;25.38;;
24435;SDS011;12616;52.470;13.436;2022-11-23T04:08:57;55.10;;;27.25;;
24435;SDS011;12616;52.470;13.436;2022-11-23T04:11:24;49.25;;;25.10;;
24435;SDS011;12616;52.470;13.436;2022-11-23T04:13:51;58.28;;;26.42;;
24435;SDS011;12616;52.470;13.436;2022-11-23T04:16:18;54.40;;;25.33;;
24435;SDS011;12616;52.470;13.436;2022-11-23T04:18:45;46.22;;;24.77;;
24435;SDS011;12616;52.470;13.436;2022-11-23T04:21:11;46.05;;;25.00;;
24435;SDS011;12616;52.470;13.436;2022-11-23T04:23:38;52.72;;;26.00;;
24435;SDS011;12616;52.470;13.436;2022-11-23T04:26:06;57.13;;;26.75;;
24435;SDS011;12616;52.470;13.436;2022-11-23T04:28:33;58.88;;;25.77;;
24435;SDS011;12616;52.470;13.436;2022-11-23T04:31:00;48.15;;;25.33;;
24435;SDS011;12616;52.470;13.436;2022-11-23T04:33:27;61.10;;;28.25;;
24435;SDS011;12616;52.470;13.436;2022-11-23T04:35:55;60.05;;;26.90;;
24435;SDS011;12616;52.470;13.436;2022-11-23T04:38:22;55.85;;;26.85;;
24435;SDS011;12616;52.470;13.436;2022-11-23T04:40:49;49.85;;;27.60;;
24435;SDS011;12616;52.470;13.436;2022-11-23T04:43:17;51.00;;;26.27;;
24435;SDS011;12616;52.470;13.436;2022-11-23T04:45:44;57.20;;;25.58;;
24435;SDS011;12616;52.470;13.436;2022-11-23T04:48:11;52.88;;;26.55;;
24435;SDS011;12616;52.470;13.436;2022-11-23T04:50:37;58.10;;;25.23;;
24435;SDS011;12616;52.470;13.436;2022-11-23T04:53:06;56.17;;;26.98;;
24435;SDS011;12616;52.470;13.436;2022-11-23T04:55:33;54.08;;;26.95;;
24435;SDS011;12616;52.470;13.436;2022-11-23T04:58:00;60.70;;;27.42;;
24435;SDS011;12616;52.470;13.436;2022-11-23T05:00:28;55.03;;;25.47;;
24435;SDS011;12616;52.470;13.436;2022-11-23T05:02:57;42.58;;;25.40;;
24435;SDS011;12616;52.470;13.436;2022-11-23T05:05:25;57.50;;;27.70;;
24435;SDS011;12616;52.470;13.436;2022-11-23T05:07:53;49.05;;;26.15;;
24435;SDS011;12616;52.470;13.436;2022-11-23T05:10:20;48.42;;;25.63;;
24435;SDS011;12616;52.470;13.436;2022-11-23T05:12:47;51.67;;;26.15;;
24435;SDS011;12616;52.470;13.436;2022-11-23T05:15:14;46.15;;;24.92;;
24435;SDS011;12616;52.470;13.436;2022-11-23T05:17:45;49.45;;;24.80;;
24435;SDS011;12616;52.470;13.436;2022-11-23T05:20:12;51.35;;;24.88;;
24435;SDS011;12616;52.470;13.436;2022-11-23T05:22:39;56.75;;;25.23;;
24435;SDS011;12616;52.470;13.436;2022-11-23T05:25:07;55.42;;;25.08;;
24435;SDS011;12616;52.470;13.436;2022-11-23T05:27:34;53.95;;;24.50;;
24435;SDS011;12616;52.470;13.436;2022-11-23T05:30:01;53.40;;;25.40;;
24435;SDS011;12616;52.470;13.436;2022-11-23T05:32:28;50.65;;;26.58;;
24435;SDS011;12616;52.470;13.436;2022-11-23T05:34:57;54.95;;;28.73;;
24435;SDS011;12616;52.470;13.436;2022-11-23T05:37:24;56.92;;;28.88;;
24435;SDS011;12616;52.470;13.436;2022-11-23T05:39:51;55.13;;;26.75;;
24435;SDS011;12616;52.470;13.436;2022-11-23T05:42:18;52.17;;;25.73;;
24435;SDS011;12616;52.470;13.436;2022-11-23T05:44:45;48.03;;;25.48;;
24435;SDS011;12616;52.470;13.436;2022-11-23T05:47:11;42.65;;;23.83;;
24435;SDS011;12616;52.470;13.436;2022-11-23T05:49:38;46.00;;;24.77;;
24435;SDS011;12616;52.470;13.436;2022-11-23T05:52:06;48.70;;;25.85;;
24435;SDS011;12616;52.470;13.436;2022-11-23T05:54:33;46.53;;;23.85;;
24435;SDS011;12616;52.470;13.436;2022-11-23T05:57:02;59.78;;;28.73;;
24435;SDS011;12616;52.470;13.436;2022-11-23T05:59:30;48.60;;;23.80;;
24435;SDS011;12616;52.470;13.436;2022-11-23T06:01:57;46.95;;;25.13;;
24435;SDS011;12616;52.470;13.436;2022-11-23T06:04:24;48.45;;;23.13;;
24435;SDS011;12616;52.470;13.436;2022-11-23T06:06:51;50.78;;;23.40;;
24435;SDS011;12616;52.470;13.436;2022-11-23T06:09:22;47.92;;;23.00;;
24435;SDS011;12616;52.470;13.436;2022-11-23T06:11:49;55.72;;;24.83;;
24435;SDS011;12616;52.470;13.436;2022-11-23T06:14:16;43.28;;;24.55;;
24435;SDS011;12616;52.470;13.436;2022-11-23T06:16:43;42.22;;;24.00;;
24435;SDS011;12616;52.470;13.436;2022-11-23T06:19:09;46.75;;;23.83;;
24435;SDS011;12616;52.470;13.436;2022-11-23T06:21:36;43.40;;;23.05;;
24435;SDS011;12616;52.470;13.436;2022-11-23T06:24:30;41.72;;;22.85;;
24435;SDS011;12616;52.470;13.436;2022-11-23T06:27:15;42.25;;;22.50;;
24435;SDS011;12616;52.470;13.436;2022-11-23T06:29:48;45.40;;;23.15;;
24435;SDS011;12616;52.470;13.436;2022-11-23T06:32:16;42.08;;;23.48;;
24435;SDS011;12616;52.470;13.436;2022-11-23T06:34:43;42.33;;;24.38;;
24435;SDS011;12616;52.470;13.436;2022-11-23T06:37:10;52.90;;;24.70;;
24435;SDS011;12616;52.470;13.436;2022-11-23T06:39:37;41.00;;;25.33;;
24435;SDS011;12616;52.470;13.436;2022-11-23T06:42:05;42.72;;;23.60;;
24435;SDS011;12616;52.470;13.436;2022-11-23T06:44:38;42.55;;;23.63;;
24435;SDS011;12616;52.470;13.436;2022-11-23T06:47:05;52.75;;;23.73;;
24435;SDS011;12616;52.470;13.436;2022-11-23T06:49:32;42.33;;;22.42;;
24435;SDS011;12616;52.470;13.436;2022-11-23T06:58:20;47.22;;;22.90;;
24435;SDS011;12616;52.470;13.436;2022-11-23T07:04:30;44.15;;;21.65;;
24435;SDS011;12616;52.470;13.436;2022-11-23T07:06:47;43.63;;;21.98;;
24435;SDS011;12616;52.470;13.436;2022-11-23T07:09:39;44.55;;;22.60;;
24435;SDS011;12616;52.470;13.436;2022-11-23T07:12:18;50.03;;;24.50;;
24435;SDS011;12616;52.470;13.436;2022-11-23T07:14:56;49.42;;;24.80;;
24435;SDS011;12616;52.470;13.436;2022-11-23T07:17:39;42.75;;;23.35;;
24435;SDS011;12616;52.470;13.436;2022-11-23T07:20:30;43.03;;;24.05;;
24435;SDS011;12616;52.470;13.436;2022-11-23T07:23:02;52.53;;;24.75;;
24435;SDS011;12616;52.470;13.436;2022-11-23T07:25:38;42.20;;;24.00;;
24435;SDS011;12616;52.470;13.436;2022-11-23T07:28:09;48.42;;;25.50;;
24435;SDS011;12616;52.470;13.436;2022-11-23T07:30:43;44.50;;;23.80;;
24435;SDS011;12616;52.470;13.436;2022-11-23T07:33:19;44.58;;;25.13;;
24435;SDS011;12616;52.470;13.436;2022-11-23T07:35:53;49.97;;;23.23;;
24435;SDS011;12616;52.470;13.436;2022-11-23T07:38:34;53.35;;;24.33;;
24435;SDS011;12616;52.470;13.436;2022-11-23T07:41:10;49.72;;;25.48;;
24435;SDS011;12616;52.470;13.436;2022-11-23T07:43:37;48.60;;;24.05;;
24435;SDS011;12616;52.470;13.436;2022-11-23T07:46:05;43.28;;;24.45;;
24435;SDS011;12616;52.470;13.436;2022-11-23T07:48:37;40.60;;;22.23;;
24435;SDS011;12616;52.470;13.436;2022-11-23T07:51:04;47.50;;;27.35;;
24435;SDS011;12616;52.470;13.436;2022-11-23T07:53:31;47.45;;;23.13;;
24435;SDS011;12616;52.470;13.436;2022-11-23T07:56:00;44.58;;;23.85;;
24435;SDS011;12616;52.470;13.436;2022-11-23T07:58:31;45.00;;;23.65;;
24435;SDS011;12616;52.470;13.436;2022-11-23T08:00:58;50.33;;;24.67;;
24435;SDS011;12616;52.470;13.436;2022-11-23T08:03:28;43.42;;;22.80;;
24435;SDS011;12616;52.470;13.436;2022-11-23T08:05:56;59.72;;;25.42;;
24435;SDS011;12616;52.470;13.436;2022-11-23T08:08:23;41.17;;;23.13;;
24435;SDS011;12616;52.470;13.436;2022-11-23T08:10:50;43.50;;;22.77;;
24435;SDS011;12616;52.470;13.436;2022-11-23T08:13:17;38.70;;;21.38;;
24435;SDS011;12616;52.470;13.436;2022-11-23T08:15:44;35.83;;;20.48;;
24435;SDS011;12616;52.470;13.436;2022-11-23T08:18:11;40.67;;;21.85;;
24435;SDS011;12616;52.470;13.436;2022-11-23T08:20:38;42.92;;;21.35;;
24435;SDS011;12616;52.470;13.436;2022-11-23T08:23:06;42.38;;;21.90;;
24435;SDS011;12616;52.470;13.436;2022-11-23T08:25:35;44.80;;;23.95;;
24435;SDS011;12616;52.470;13.436;2022-11-23T08:28:02;41.50;;;24.73;;
24435;SDS011;12616;52.470;13.436;2022-11-23T08:30:32;40.25;;;22.63;;
24435;SDS011;12616;52.470;13.436;2022-11-23T08:33:01;38.63;;;22.83;;
24435;SDS011;12616;52.470;13.436;2022-11-23T08:35:28;39.95;;;21.90;;
24435;SDS011;12616;52.470;13.436;2022-11-23T08:37:55;42.75;;;23.30;;
24435;SDS011;12616;52.470;13.436;2022-11-23T08:40:24;36.35;;;21.45;;
24435;SDS011;12616;52.470;13.436;2022-11-23T08:42:51;43.47;;;22.42;;
24435;SDS011;12616;52.470;13.436;2022-11-23T08:45:19;39.42;;;22.88;;
24435;SDS011;12616;52.470;13.436;2022-11-23T08:47:46;35.95;;;21.27;;
24435;SDS011;12616;52.470;13.436;2022-11-23T08:50:13;39.05;;;21.70;;
24435;SDS011;12616;52.470;13.436;2022-11-23T08:52:40;36.92;;;20.42;;
24435;SDS011;12616;52.470;13.436;2022-11-23T08:55:12;38.33;;;23.50;;
24435;SDS011;12616;52.470;13.436;2022-11-23T08:57:40;42.75;;;24.27;;
24435;SDS011;12616;52.470;13.436;2022-11-23T09:00:08;43.88;;;22.95;;
24435;SDS011;12616;52.470;13.436;2022-11-23T09:02:35;47.25;;;23.70;;
24435;SDS011;12616;52.470;13.436;2022-11-23T09:05:03;36.17;;;21.98;;
24435;SDS011;12616;52.470;13.436;2022-11-23T09:07:31;36.67;;;22.95;;
24435;SDS011;12616;52.470;13.436;2022-11-23T09:09:58;40.70;;;20.27;;
24435;SDS011;12616;52.470;13.436;2022-11-23T09:12:49;37.97;;;22.17;;
24435;SDS011;12616;52.470;13.436;2022-11-23T09:15:17;38.38;;;22.70;;
24435;SDS011;12616;52.470;13.436;2022-11-23T09:17:48;37.70;;;23.60;;
24435;SDS011;12616;52.470;13.436;2022-11-23T09:20:16;44.95;;;22.77;;
24435;SDS011;12616;52.470;13.436;2022-11-23T09:22:49;39.78;;;22.40;;
24435;SDS011;12616;52.470;13.436;2022-11-23T09:25:17;36.53;;;21.45;;
24435;SDS011;12616;52.470;13.436;2022-11-23T09:27:44;34.50;;;21.00;;
24435;SDS011;12616;52.470;13.436;2022-11-23T09:30:14;35.75;;;21.13;;
24435;SDS011;12616;52.470;13.436;2022-11-23T09:32:41;34.00;;;19.00;;
24435;SDS011;12616;52.470;13.436;2022-11-23T09:35:10;39.63;;;20.95;;
24435;SDS011;12616;52.470;13.436;2022-11-23T09:37:46;36.33;;;20.80;;
24435;SDS011;12616;52.470;13.436;2022-11-23T09:40:21;34.38;;;19.55;;
24435;SDS011;12616;52.470;13.436;2022-11-23T09:43:47;36.38;;;20.02;;
24435;SDS011;12616;52.470;13.436;2022-11-23T09:46:35;28.60;;;19.33;;
24435;SDS011;12616;52.470;13.436;2022-11-23T09:52:23;31.30;;;19.95;;
24435;SDS011;12616;52.470;13.436;2022-11-23T09:55:09;33.08;;;19.02;;
24435;SDS011;12616;52.470;13.436;2022-11-23T09:58:26;32.83;;;18.33;;
24435;SDS011;12616;52.470;13.436;2022-11-23T10:01:25;34.35;;;19.27;;
24435;SDS011;12616;52.470;13.436;2022-11-23T10:06:46;40.58;;;21.08;;
24435;SDS011;12616;52.470;13.436;2022-11-23T10:09:23;33.88;;;18.88;;
24435;SDS011;12616;52.470;13.436;2022-11-23T10:12:06;30.25;;;17.92;;
24435;SDS011;12616;52.470;13.436;2022-11-23T10:14:52;34.30;;;18.92;;
24435;SDS011;12616;52.470;13.436;2022-11-23T10:17:42;26.05;;;17.52;;
24435;SDS011;12616;52.470;13.436;2022-11-23T10:20:32;31.23;;;17.20;;
24435;SDS011;12616;52.470;13.436;2022-11-23T10:23:12;27.92;;;16.25;;
24435;SDS011;12616;52.470;13.436;2022-11-23T10:25:45;30.50;;;18.95;;
24435;SDS011;12616;52.470;13.436;2022-11-23T10:28:15;35.67;;;18.17;;
24435;SDS011;12616;52.470;13.436;2022-11-23T10:30:47;24.90;;;17.27;;
24435;SDS011;12616;52.470;13.436;2022-11-23T10:33:25;32.45;;;18.75;;
24435;SDS011;12616;52.470;13.436;2022-11-23T10:35:58;34.85;;;20.13;;
24435;SDS011;12616;52.470;13.436;2022-11-23T10:38:26;24.40;;;15.88;;
24435;SDS011;12616;52.470;13.436;2022-11-23T10:40:59;35.17;;;17.65;;
24435;SDS011;12616;52.470;13.436;2022-11-23T10:43:29;32.45;;;16.90;;
24435;SDS011;12616;52.470;13.436;2022-11-23T10:49:12;25.33;;;15.80;;
24435;SDS011;12616;52.470;13.436;2022-11-23T10:54:30;25.40;;;16.05;;
24435;SDS011;12616;52.470;13.436;2022-11-23T10:56:59;29.70;;;18.58;;
24435;SDS011;12616;52.470;13.436;2022-11-23T10:59:32;31.90;;;18.08;;
24435;SDS011;12616;52.470;13.436;2022-11-23T11:02:20;32.95;;;18.50;;
24435;SDS011;12616;52.470;13.436;2022-11-23T11:07:57;32.63;;;17.25;;
24435;SDS011;12616;52.470;13.436;2022-11-23T11:10:31;23.75;;;15.27;;
24435;SDS011;12616;52.470;13.436;2022-11-23T11:12:59;23.38;;;15.27;;
24435;SDS011;12616;52.470;13.436;2022-11-23T11:15:26;29.75;;;17.95;;
24435;SDS011;12616;52.470;13.436;2022-11-23T11:17:53;29.15;;;17.95;;
24435;SDS011;12616;52.470;13.436;2022-11-23T11:20:23;28.05;;;18.00;;
24435;SDS011;12616;52.470;13.436;2022-11-23T11:22:57;25.13;;;16.88;;
24435;SDS011;12616;52.470;13.436;2022-11-23T11:25:27;32.65;;;20.65;;
24435;SDS011;12616;52.470;13.436;2022-11-23T11:27:56;24.83;;;15.10;;
24435;SDS011;12616;52.470;13.436;2022-11-23T11:30:33;26.92;;;17.08;;
24435;SDS011;12616;52.470;13.436;2022-11-23T11:33:09;25.88;;;17.35;;
24435;SDS011;12616;52.470;13.436;2022-11-23T11:35:40;23.63;;;14.50;;
24435;SDS011;12616;52.470;13.436;2022-11-23T11:38:13;23.10;;;15.07;;
24435;SDS011;12616;52.470;13.436;2022-11-23T11:40:45;27.75;;;17.80;;
24435;SDS011;12616;52.470;13.436;2022-11-23T11:43:15;28.50;;;16.10;;
24435;SDS011;12616;52.470;13.436;2022-11-23T11:45:46;24.30;;;16.45;;
24435;SDS011;12616;52.470;13.436;2022-11-23T11:48:21;29.67;;;16.95;;
24435;SDS011;12616;52.470;13.436;2022-11-23T11:50:54;30.15;;;17.50;;
24435;SDS011;12616;52.470;13.436;2022-11-23T11:53:26;29.40;;;18.27;;
24435;SDS011;12616;52.470;13.436;2022-11-23T11:56:06;25.50;;;14.75;;
24435;SDS011;12616;52.470;13.436;2022-11-23T11:58:41;28.95;;;15.63;;
24435;SDS011;12616;52.470;13.436;2022-11-23T12:01:24;22.92;;;15.45;;
24435;SDS011;12616;52.470;13.436;2022-11-23T12:03:59;22.42;;;15.18;;
24435;SDS011;12616;52.470;13.436;2022-11-23T12:06:32;24.08;;;17.00;;
24435;SDS011;12616;52.470;13.436;2022-11-23T12:09:08;24.75;;;15.18;;
24435;SDS011;12616;52.470;13.436;2022-11-23T12:11:50;30.63;;;18.50;;
24435;SDS011;12616;52.470;13.436;2022-11-23T12:14:40;22.92;;;13.73;;
24435;SDS011;12616;52.470;13.436;2022-11-23T12:17:27;23.80;;;14.45;;
24435;SDS011;12616;52.470;13.436;2022-11-23T12:20:29;23.48;;;15.73;;
24435;SDS011;12616;52.470;13.436;2022-11-23T12:23:23;27.65;;;15.35;;
24435;SDS011;12616;52.470;13.436;2022-11-23T12:26:10;22.33;;;13.68;;
24435;SDS011;12616;52.470;13.436;2022-11-23T12:28:53;23.85;;;14.93;;
24435;SDS011;12616;52.470;13.436;2022-11-23T12:31:38;21.83;;;15.18;;
24435;SDS011;12616;52.470;13.436;2022-11-23T12:34:20;22.02;;;13.32;;
24435;SDS011;12616;52.470;13.436;2022-11-23T12:37:06;20.55;;;13.88;;
24435;SDS011;12616;52.470;13.436;2022-11-23T12:40:10;21.73;;;12.57;;
24435;SDS011;12616;52.470;13.436;2022-11-23T12:42:47;23.38;;;15.98;;
24435;SDS011;12616;52.470;13.436;2022-11-23T12:45:21;19.48;;;13.57;;
24435;SDS011;12616;52.470;13.436;2022-11-23T12:48:07;26.65;;;15.18;;
24435;SDS011;12616;52.470;13.436;2022-11-23T12:50:47;21.33;;;12.95;;
24435;SDS011;12616;52.470;13.436;2022-11-23T12:53:25;25.23;;;14.88;;
24435;SDS011;12616;52.470;13.436;2022-11-23T12:56:11;21.05;;;13.80;;
24435;SDS011;12616;52.470;13.436;2022-11-23T12:58:49;20.98;;;14.57;;
24435;SDS011;12616;52.470;13.436;2022-11-23T13:01:20;24.35;;;14.95;;
24435;SDS011;12616;52.470;13.436;2022-11-23T13:03:58;20.40;;;14.93;;
24435;SDS011;12616;52.470;13.436;2022-11-23T13:07:05;21.02;;;13.82;;
24435;SDS011;12616;52.470;13.436;2022-11-23T13:09:54;21.27;;;14.00;;
24435;SDS011;12616;52.470;13.436;2022-11-23T13:12:34;23.92;;;14.43;;
24435;SDS011;12616;52.470;13.436;2022-11-23T13:15:27;25.67;;;14.88;;
24435;SDS011;12616;52.470;13.436;2022-11-23T13:18:08;32.92;;;15.70;;
24435;SDS011;12616;52.470;13.436;2022-11-23T13:20:48;17.73;;;12.07;;
24435;SDS011;12616;52.470;13.436;2022-11-23T13:23:38;23.40;;;14.65;;
24435;SDS011;12616;52.470;13.436;2022-11-23T13:26:12;22.40;;;14.77;;
24435;SDS011;12616;52.470;13.436;2022-11-23T13:28:40;22.80;;;14.30;;
24435;SDS011;12616;52.470;13.436;2022-11-23T13:31:18;21.35;;;14.38;;
24435;SDS011;12616;52.470;13.436;2022-11-23T13:33:50;24.25;;;14.20;;
24435;SDS011;12616;52.470;13.436;2022-11-23T13:42:12;20.95;;;13.10;;
24435;SDS011;12616;52.470;13.436;2022-11-23T13:44:40;21.25;;;13.40;;
24435;SDS011;12616;52.470;13.436;2022-11-23T13:47:18;21.75;;;14.13;;
24435;SDS011;12616;52.470;13.436;2022-11-23T13:49:46;21.70;;;12.50;;
24435;SDS011;12616;52.470;13.436;2022-11-23T13:52:19;20.02;;;15.95;;
24435;SDS011;12616;52.470;13.436;2022-11-23T13:54:58;21.23;;;14.77;;
24435;SDS011;12616;52.470;13.436;2022-11-23T13:57:27;23.63;;;15.95;;
24435;SDS011;12616;52.470;13.436;2022-11-23T14:05:57;24.98;;;14.30;;
24435;SDS011;12616;52.470;13.436;2022-11-23T14:08:26;23.75;;;13.52;;
24435;SDS011;12616;52.470;13.436;2022-11-23T14:10:53;19.15;;;13.90;;
24435;SDS011;12616;52.470;13.436;2022-11-23T14:13:22;21.95;;;14.23;;
24435;SDS011;12616;52.470;13.436;2022-11-23T14:15:53;23.35;;;14.30;;
24435;SDS011;12616;52.470;13.436;2022-11-23T14:18:33;25.23;;;14.10;;
24435;SDS011;12616;52.470;13.436;2022-11-23T14:21:14;23.05;;;14.43;;
24435;SDS011;12616;52.470;13.436;2022-11-23T14:27:01;20.17;;;13.35;;
24435;SDS011;12616;52.470;13.436;2022-11-23T14:29:47;20.75;;;13.40;;
24435;SDS011;12616;52.470;13.436;2022-11-23T14:32:28;20.45;;;12.82;;
24435;SDS011;12616;52.470;13.436;2022-11-23T14:35:11;19.45;;;13.35;;
24435;SDS011;12616;52.470;13.436;2022-11-23T14:37:50;21.63;;;14.27;;
24435;SDS011;12616;52.470;13.436;2022-11-23T14:40:29;29.10;;;18.15;;
24435;SDS011;12616;52.470;13.436;2022-11-23T14:43:09;18.77;;;12.60;;
24435;SDS011;12616;52.470;13.436;2022-11-23T14:45:41;19.77;;;13.13;;
24435;SDS011;12616;52.470;13.436;2022-11-23T14:48:21;19.05;;;12.27;;
24435;SDS011;12616;52.470;13.436;2022-11-23T14:50:55;23.38;;;13.88;;
24435;SDS011;12616;52.470;13.436;2022-11-23T14:53:27;21.60;;;13.88;;
24435;SDS011;12616;52.470;13.436;2022-11-23T14:55:56;23.60;;;13.50;;
24435;SDS011;12616;52.470;13.436;2022-11-23T14:58:23;25.98;;;13.65;;
24435;SDS011;12616;52.470;13.436;2022-11-23T15:00:57;22.63;;;14.55;;
24435;SDS011;12616;52.470;13.436;2022-11-23T15:03:52;21.58;;;12.30;;
24435;SDS011;12616;52.470;13.436;2022-11-23T15:06:39;18.38;;;13.25;;
24435;SDS011;12616;52.470;13.436;2022-11-23T15:09:14;20.05;;;12.85;;
24435;SDS011;12616;52.470;13.436;2022-11-23T15:11:46;17.85;;;12.60;;
24435;SDS011;12616;52.470;13.436;2022-11-23T15:14:16;23.25;;;12.43;;
24435;SDS011;12616;52.470;13.436;2022-11-23T15:16:45;18.45;;;12.82;;
24435;SDS011;12616;52.470;13.436;2022-11-23T15:19:16;19.63;;;12.73;;